Observation data for Gail on 06/24/2019      Previous  Date  Next       Current Mesonet Observations  Soil Data  Daily Summary Page  Observations in Plain Language
KGGS 240500Z 05005KT 23/11 A2986 RMK A01 T02250108  RH  049%=      5-min Rain = 0
KGGS 240505Z 06005KT 23/11 A2987 RMK A01 T02260109  RH  049%=      5-min Rain = 0
KGGS 240510Z 08005KT 23/11 A2987 RMK A01 T02290114  RH  050%=      5-min Rain = 0
KGGS 240515Z 08004KT 23/12 A2987 RMK A01 T02280118  RH  052%=      5-min Rain = 0
KGGS 240520Z 09005KT 23/12 A2987 RMK A01 T02260121  RH  053%=      5-min Rain = 0
KGGS 240525Z 09005KT 23/13 A2987 RMK A01 T02260125  RH  055%=      5-min Rain = 0
KGGS 240530Z 10005KT 23/13 A2987 RMK A01 T02250128  RH  056%=      5-min Rain = 0
KGGS 240535Z 09005KT 22/13 A2987 RMK A01 T02240131  RH  058%=      5-min Rain = 0
KGGS 240540Z 09005KT 22/13 A2987 RMK A01 T02220133  RH  059%=      5-min Rain = 0
KGGS 240545Z 09005KT 22/14 A2987 RMK A01 T02210136  RH  061%=      5-min Rain = 0
KGGS 240550Z 09004KT 22/14 A2987 RMK A01 T02190138  RH  063%=      5-min Rain = 0
KGGS 240555Z 08004KT 22/14 A2987 RMK A01 T02190141  RH  064%=      5-min Rain = 0
KGGS 240600Z 09004KT 22/14 A2987 RMK A01 T02170142  RH  065%=      5-min Rain = 0
KGGS 240605Z 10004KT 22/14 A2987 RMK A01 T02160144  RH  066%=      5-min Rain = 0
KGGS 240610Z 09004KT 21/15 A2986 RMK A01 T02130146  RH  068%=      5-min Rain = 0
KGGS 240615Z 09004KT 21/15 A2986 RMK A01 T02120147  RH  069%=      5-min Rain = 0
KGGS 240620Z 08004KT 21/15 A2987 RMK A01 T02120148  RH  070%=      5-min Rain = 0
KGGS 240625Z 06002KT 20/14 A2987 RMK A01 T02020142  RH  072%=      5-min Rain = 0
KGGS 240630Z 09003KT 20/14 A2986 RMK A01 T02000144  RH  073%=      5-min Rain = 0
KGGS 240635Z 10004KT 20/15 A2986 RMK A01 T02030151  RH  075%=      5-min Rain = 0
KGGS 240640Z 10005KT 21/16 A2986 RMK A01 T02100155  RH  074%=      5-min Rain = 0
KGGS 240645Z 11004KT 22/16 A2986 RMK A01 T02150155  RH  072%=      5-min Rain = 0
KGGS 240650Z 11004KT 22/16 A2986 RMK A01 T02150155  RH  072%=      5-min Rain = 0
KGGS 240655Z 10003KT 21/16 A2986 RMK A01 T02130155  RH  073%=      5-min Rain = 0
KGGS 240700Z 08002KT 21/15 A2986 RMK A01 T02090153  RH  073%=      5-min Rain = 0
KGGS 240705Z 36002KT 19/15 A2986 RMK A01 T01940146  RH  077%=      5-min Rain = 0
KGGS 240710Z 34001KT 19/15 A2986 RMK A01 T01920149  RH  080%=      5-min Rain = 0
KGGS 240715Z 35003KT 20/15 A2986 RMK A01 T01960151  RH  079%=      5-min Rain = 0
KGGS 240720Z 34006KT 19/14 A2986 RMK A01 T01860143  RH  080%=      5-min Rain = 0
KGGS 240725Z 35004KT 18/14 A2987 RMK A01 T01780144  RH  084%=      5-min Rain = 0
KGGS 240730Z 35005KT 18/14 A2987 RMK A01 T01750144  RH  086%=      5-min Rain = 0
KGGS 240735Z 35006KT 17/15 A2987 RMK A01 T01740146  RH  088%=      5-min Rain = 0
KGGS 240740Z 36004KT 18/15 A2987 RMK A01 T01790152  RH  088%=      5-min Rain = 0
KGGS 240745Z 01003KT 18/15 A2987 RMK A01 T01810154  RH  088%=      5-min Rain = 0
KGGS 240750Z 36002KT 18/16 A2987 RMK A01 T01820155  RH  088%=      5-min Rain = 0
KGGS 240755Z 01004KT 19/16 A2987 RMK A01 T01850156  RH  088%=      5-min Rain = 0
KGGS 240800Z 35004KT 19/16 A2987 RMK A01 T01850155  RH  087%=      5-min Rain = 0
KGGS 240805Z 34004KT 19/15 A2987 RMK A01 T01850154  RH  086%=      5-min Rain = 0
KGGS 240810Z 34005KT 18/15 A2987 RMK A01 T01820152  RH  086%=      5-min Rain = 0
KGGS 240815Z 35003KT 18/15 A2987 RMK A01 T01820153  RH  087%=      5-min Rain = 0
KGGS 240820Z 35004KT 18/15 A2987 RMK A01 T01800151  RH  087%=      5-min Rain = 0
KGGS 240825Z 00005KT 18/15 A2987 RMK A01 T01780150  RH  088%=      5-min Rain = 0
KGGS 240830Z 36004KT 18/15 A2987 RMK A01 T01780151  RH  088%=      5-min Rain = 0
KGGS 240835Z 35005KT 18/15 A2987 RMK A01 T01790152  RH  088%=      5-min Rain = 0
KGGS 240840Z 34005KT 18/15 A2988 RMK A01 T01780152  RH  089%=      5-min Rain = 0
KGGS 240845Z 34006KT 18/15 A2988 RMK A01 T01770152  RH  089%=      5-min Rain = 0
KGGS 240850Z 35006KT 18/15 A2988 RMK A01 T01780153  RH  089%=      5-min Rain = 0
KGGS 240855Z 00005KT 18/16 A2988 RMK A01 T01810156  RH  090%=      5-min Rain = 0
KGGS 240900Z 00005KT 18/16 A2988 RMK A01 T01820157  RH  089%=      5-min Rain = 0
KGGS 240905Z 36006KT 18/16 A2988 RMK A01 T01820157  RH  089%=      5-min Rain = 0
KGGS 240910Z 36007KT 18/16 A2988 RMK A01 T01840158  RH  089%=      5-min Rain = 0
KGGS 240915Z 00008KT 19/16 A2988 RMK A01 T01860160  RH  089%=      5-min Rain = 0
KGGS 240920Z 00007KT 19/16 A2988 RMK A01 T01870160  RH  089%=      5-min Rain = 0
KGGS 240925Z 00007KT 19/16 A2989 RMK A01 T01880161  RH  088%=      5-min Rain = 0
KGGS 240930Z 01008KT 19/16 A2989 RMK A01 T01910162  RH  087%=      5-min Rain = 0
KGGS 240935Z 01008KT 19/16 A2989 RMK A01 T01920161  RH  086%=      5-min Rain = 0
KGGS 240940Z 01008KT 19/16 A2988 RMK A01 T01920161  RH  086%=      5-min Rain = 0
KGGS 240945Z 01007KT 19/16 A2988 RMK A01 T01920160  RH  086%=      5-min Rain = 0
KGGS 240950Z 01007KT 19/16 A2988 RMK A01 T01920160  RH  086%=      5-min Rain = 0
KGGS 240955Z 01008KT 19/16 A2989 RMK A01 T01910160  RH  086%=      5-min Rain = 0
KGGS 241000Z 01008KT 19/16 A2989 RMK A01 T01920160  RH  086%=      5-min Rain = 0
KGGS 241005Z 02007KT 19/16 A2989 RMK A01 T01930160  RH  085%=      5-min Rain = 0
KGGS 241010Z 01007KT 19/16 A2989 RMK A01 T01930160  RH  085%=      5-min Rain = 0
KGGS 241015Z 02007KT 19/16 A299 RMK A01 T01930160  RH  085%=      5-min Rain = 0
KGGS 241020Z 03008KT 20/16 A299 RMK A01 T01950161  RH  085%=      5-min Rain = 0
KGGS 241025Z 05007KT 20/16 A299 RMK A01 T01990162  RH  083%=      5-min Rain = 0
KGGS 241030Z 04007KT 20/16 A299 RMK A01 T01980162  RH  083%=      5-min Rain = 0
KGGS 241035Z 05006KT 20/16 A299 RMK A01 T01980162  RH  084%=      5-min Rain = 0
KGGS 241040Z 05006KT 20/16 A299 RMK A01 T01970162  RH  084%=      5-min Rain = 0
KGGS 241045Z 04006KT 20/16 A2991 RMK A01 T01960162  RH  084%=      5-min Rain = 0
KGGS 241050Z 05006KT 20/16 A2991 RMK A01 T01960162  RH  085%=      5-min Rain = 0
KGGS 241055Z 08004KT 20/16 A2991 RMK A01 T01960163  RH  085%=      5-min Rain = 0
KGGS 241100Z 05005KT 20/16 A2992 RMK A01 T01960162  RH  085%=      5-min Rain = 0
KGGS 241105Z 05005KT 20/16 A2992 RMK A01 T01950162  RH  085%=      5-min Rain = 0
KGGS 241110Z 06005KT 19/16 A2992 RMK A01 T01930162  RH  086%=      5-min Rain = 0
KGGS 241115Z 04005KT 19/16 A2992 RMK A01 T01920162  RH  087%=      5-min Rain = 0
KGGS 241120Z 04005KT 19/16 A2992 RMK A01 T01910161  RH  087%=      5-min Rain = 0
KGGS 241125Z 04006KT 19/16 A2992 RMK A01 T01900161  RH  088%=      5-min Rain = 0
KGGS 241130Z 04005KT 19/16 A2992 RMK A01 T01900162  RH  088%=      5-min Rain = 0
KGGS 241135Z 04006KT 19/16 A2992 RMK A01 T01900163  RH  088%=      5-min Rain = 0
KGGS 241140Z 04005KT 19/16 A2993 RMK A01 T01910163  RH  088%=      5-min Rain = 0
KGGS 241145Z 03006KT 19/16 A2993 RMK A01 T01910163  RH  088%=      5-min Rain = 0
KGGS 241150Z 04005KT 19/16 A2993 RMK A01 T01910164  RH  088%=      5-min Rain = 0
KGGS 241155Z 02005KT 19/16 A2993 RMK A01 T01920164  RH  088%=      5-min Rain = 0
KGGS 241200Z 02006KT 19/16 A2993 RMK A01 T01910164  RH  089%=      5-min Rain = 0
KGGS 241205Z 02006KT 19/17 A2993 RMK A01 T01920165  RH  089%=      5-min Rain = 0
KGGS 241210Z 01007KT 19/17 A2993 RMK A01 T01930166  RH  089%=      5-min Rain = 0
KGGS 241215Z 01007KT 19/17 A2993 RMK A01 T01940167  RH  089%=      5-min Rain = 0
KGGS 241220Z 02007KT 20/17 A2994 RMK A01 T01960169  RH  088%=      5-min Rain = 0
KGGS 241225Z 02008KT 20/17 A2994 RMK A01 T01980170  RH  088%=      5-min Rain = 0
KGGS 241230Z 03009KT 20/17 A2994 RMK A01 T02010170  RH  087%=      5-min Rain = 0
KGGS 241235Z 03008KT 20/17 A2994 RMK A01 T02030171  RH  086%=      5-min Rain = 0
KGGS 241240Z 03008KT 21/17 A2994 RMK A01 T02060171  RH  085%=      5-min Rain = 0
KGGS 241245Z 03008G13KT 21/17 A2994 RMK A01 T02070171  RH  084%=      5-min Rain = 0
KGGS 241250Z 04009KT 21/17 A2994 RMK A01 T02090171  RH  083%=      5-min Rain = 0
KGGS 241255Z 05008KT 21/17 A2994 RMK A01 T02110171  RH  082%=      5-min Rain = 0
KGGS 241300Z 04008KT 21/17 A2995 RMK A01 T02120172  RH  082%=      5-min Rain = 0
KGGS 241305Z 05009G14KT 21/17 A2995 RMK A01 T02140172  RH  081%=      5-min Rain = 0
KGGS 241310Z 05009KT 22/17 A2995 RMK A01 T02160173  RH  080%=      5-min Rain = 0
KGGS 241315Z 06009G14KT 22/17 A2995 RMK A01 T02170172  RH  080%=      5-min Rain = 0
KGGS 241320Z 05010KT 22/17 A2995 RMK A01 T02180172  RH  079%=      5-min Rain = 0
KGGS 241325Z 05009KT 22/17 A2995 RMK A01 T02200173  RH  078%=      5-min Rain = 0
KGGS 241330Z 05010KT 22/17 A2996 RMK A01 T02210173  RH  078%=      5-min Rain = 0
KGGS 241335Z 05010KT 22/17 A2996 RMK A01 T02210172  RH  077%=      5-min Rain = 0
KGGS 241340Z 06010KT 22/17 A2996 RMK A01 T02220172  RH  077%=      5-min Rain = 0
KGGS 241345Z 05007G13KT 23/17 A2996 RMK A01 T02260174  RH  076%=      5-min Rain = 0
KGGS 241350Z 06009KT 23/17 A2997 RMK A01 T02280174  RH  075%=      5-min Rain = 0
KGGS 241355Z 07009KT 23/17 A2997 RMK A01 T02290173  RH  074%=      5-min Rain = 0
KGGS 241400Z 06009KT 23/17 A2997 RMK A01 T02320174  RH  073%=      5-min Rain = 0
KGGS 241405Z 08009G14KT 23/17 A2997 RMK A01 T02340173  RH  072%=      5-min Rain = 0
KGGS 241410Z 07010KT 24/17 A2997 RMK A01 T02350172  RH  071%=      5-min Rain = 0
KGGS 241415Z 06010KT 24/17 A2997 RMK A01 T02370174  RH  071%=      5-min Rain = 0
KGGS 241420Z 08008G14KT 24/18 A2997 RMK A01 T02400175  RH  070%=      5-min Rain = 0
KGGS 241425Z 07010G15KT 24/17 A2997 RMK A01 T02410173  RH  069%=      5-min Rain = 0
KGGS 241430Z 07010KT 24/17 A2997 RMK A01 T02410173  RH  069%=      5-min Rain = 0
KGGS 241435Z 07010KT 24/17 A2997 RMK A01 T02420173  RH  069%=      5-min Rain = 0
KGGS 241440Z 07010KT 24/17 A2998 RMK A01 T02430174  RH  069%=      5-min Rain = 0
KGGS 241445Z 08009KT 24/17 A2998 RMK A01 T02440174  RH  068%=      5-min Rain = 0
KGGS 241450Z 06009G14KT 25/18 A2998 RMK A01 T02460175  RH  068%=      5-min Rain = 0
KGGS 241455Z 07009G15KT 25/18 A2998 RMK A01 T02470175  RH  068%=      5-min Rain = 0
KGGS 241500Z 08011KT 25/17 A2998 RMK A01 T02450173  RH  068%=      5-min Rain = 0
KGGS 241505Z 07010KT 25/18 A2998 RMK A01 T02460175  RH  068%=      5-min Rain = 0
KGGS 241510Z 06009KT 25/18 A2998 RMK A01 T02500176  RH  067%=      5-min Rain = 0
KGGS 241515Z 07008KT 25/18 A2998 RMK A01 T02540178  RH  066%=      5-min Rain = 0
KGGS 241520Z 07010G16KT 26/18 A2998 RMK A01 T02570178  RH  065%=      5-min Rain = 0
KGGS 241525Z 07010KT 26/18 A2998 RMK A01 T02600178  RH  064%=      5-min Rain = 0
KGGS 241530Z 07010KT 26/18 A2997 RMK A01 T02580177  RH  064%=      5-min Rain = 0
KGGS 241535Z 06009G15KT 26/18 A2997 RMK A01 T02580177  RH  064%=      5-min Rain = 0
KGGS 241540Z 07011G16KT 26/18 A2997 RMK A01 T02590177  RH  064%=      5-min Rain = 0
KGGS 241545Z 07008KT 26/18 A2997 RMK A01 T02580177  RH  064%=      5-min Rain = 0
KGGS 241550Z 08008KT 26/18 A2997 RMK A01 T02560178  RH  065%=      5-min Rain = 0
KGGS 241555Z 08009G14KT 26/18 A2997 RMK A01 T02610178  RH  063%=      5-min Rain = 0
KGGS 241600Z 08010G15KT 26/18 A2997 RMK A01 T02550176  RH  065%=      5-min Rain = 0
KGGS 241605Z 09010G15KT 26/18 A2997 RMK A01 T02590177  RH  064%=      5-min Rain = 0
KGGS 241610Z 08008G14KT 26/18 A2997 RMK A01 T02610177  RH  063%=      5-min Rain = 0
KGGS 241615Z 10008KT 27/18 A2997 RMK A01 T02660178  RH  062%=      5-min Rain = 0
KGGS 241620Z 09009G14KT 27/18 A2997 RMK A01 T02700179  RH  060%=      5-min Rain = 0
KGGS 241625Z 09008G13KT 27/18 A2997 RMK A01 T02650177  RH  062%=      5-min Rain = 0
KGGS 241630Z 08008KT 27/18 A2997 RMK A01 T02680180  RH  062%=      5-min Rain = 0
KGGS 241635Z 10008KT 27/18 A2997 RMK A01 T02660180  RH  063%=      5-min Rain = 0
KGGS 241640Z 09008KT 27/18 A2997 RMK A01 T02660181  RH  063%=      5-min Rain = 0
KGGS 241645Z 08008G13KT 27/18 A2997 RMK A01 T02680180  RH  062%=      5-min Rain = 0
KGGS 241650Z 08007G13KT 27/18 A2997 RMK A01 T02730183  RH  061%=      5-min Rain = 0
KGGS 241655Z 08007G12KT 28/18 A2997 RMK A01 T02760183  RH  060%=      5-min Rain = 0
KGGS 241700Z 09008KT 28/18 A2997 RMK A01 T02770184  RH  060%=      5-min Rain = 0
KGGS 241705Z 10007G13KT 28/18 A2997 RMK A01 T02760184  RH  060%=      5-min Rain = 0
KGGS 241710Z 08007KT 28/19 A2996 RMK A01 T02760185  RH  061%=      5-min Rain = 0
KGGS 241715Z 07008KT 28/18 A2996 RMK A01 T02780183  RH  060%=      5-min Rain = 0
KGGS 241720Z 09007G14KT 28/19 A2996 RMK A01 T02770185  RH  060%=      5-min Rain = 0
KGGS 241725Z 09010KT 28/18 A2996 RMK A01 T02770183  RH  060%=      5-min Rain = 0
KGGS 241730Z 09008G13KT 28/19 A2996 RMK A01 T02810186  RH  060%=      5-min Rain = 0
KGGS 241735Z 08008G13KT 29/19 A2996 RMK A01 T02870187  RH  058%=      5-min Rain = 0
KGGS 241740Z 09009G14KT 29/19 A2996 RMK A01 T02860186  RH  058%=      5-min Rain = 0
KGGS 241745Z 10008KT 28/19 A2995 RMK A01 T02840185  RH  058%=      5-min Rain = 0
KGGS 241750Z 09009KT 28/19 A2995 RMK A01 T02800185  RH  059%=      5-min Rain = 0
KGGS 241755Z 09008KT 28/19 A2995 RMK A01 T02800185  RH  059%=      5-min Rain = 0
KGGS 241805Z 08008KT 29/19 A2995 RMK A01 T02860185  RH  058%=      5-min Rain = 0
KGGS 241810Z 08010KT 29/19 A2995 RMK A01 T02850185  RH  058%=      5-min Rain = 0
KGGS 241815Z 08007KT 29/19 A2995 RMK A01 T02860188  RH  058%=      5-min Rain = 0
KGGS 241820Z 09009G15KT 29/19 A2995 RMK A01 T02890186  RH  057%=      5-min Rain = 0
KGGS 241825Z 09008G14KT 29/19 A2994 RMK A01 T02920185  RH  055%=      5-min Rain = 0
KGGS 241830Z 11008KT 30/19 A2994 RMK A01 T02970186  RH  054%=      5-min Rain = 0
KGGS 241835Z 09009G14KT 30/19 A2994 RMK A01 T02960185  RH  054%=      5-min Rain = 0
KGGS 241840Z 10008KT 30/19 A2994 RMK A01 T02990186  RH  054%=      5-min Rain = 0
KGGS 241845Z 07008G13KT 30/19 A2994 RMK A01 T03020190  RH  054%=      5-min Rain = 0
KGGS 241850Z 08008KT 30/19 A2994 RMK A01 T02990188  RH  054%=      5-min Rain = 0
KGGS 241855Z 09009G14KT 30/19 A2994 RMK A01 T02980185  RH  053%=      5-min Rain = 0
KGGS 241900Z 09009KT 30/19 A2994 RMK A01 T02980186  RH  054%=      5-min Rain = 0
KGGS 241905Z 09006G12KT 30/18 A2994 RMK A01 T03030184  RH  052%=      5-min Rain = 0
KGGS 241910Z 09006G11KT 31/18 A2993 RMK A01 T03080184  RH  050%=      5-min Rain = 0
KGGS 241915Z 12008KT 31/19 A2993 RMK A01 T03110185  RH  050%=      5-min Rain = 0
KGGS 241920Z 10007G13KT 31/18 A2993 RMK A01 T03070183  RH  050%=      5-min Rain = 0
KGGS 241925Z 08007KT 31/19 A2993 RMK A01 T03110189  RH  051%=      5-min Rain = 0
KGGS 241930Z 07008G14KT 31/19 A2993 RMK A01 T03110188  RH  051%=      5-min Rain = 0
KGGS 241935Z 08008KT 31/19 A2993 RMK A01 T03140187  RH  050%=      5-min Rain = 0
KGGS 241940Z 13006KT 32/19 A2993 RMK A01 T03160187  RH  049%=      5-min Rain = 0
KGGS 241945Z 09006G11KT 31/18 A2992 RMK A01 T03140184  RH  049%=      5-min Rain = 0
KGGS 241950Z 11007KT 31/19 A2992 RMK A01 T03140187  RH  050%=      5-min Rain = 0
KGGS 241955Z 07006G11KT 32/19 A2992 RMK A01 T03190189  RH  049%=      5-min Rain = 0
KGGS 242000Z 07007KT 32/18 A2992 RMK A01 T03150184  RH  048%=      5-min Rain = 0
KGGS 242005Z 11005KT 31/19 A2992 RMK A01 T03110186  RH  050%=      5-min Rain = 0
KGGS 242010Z 10008KT 32/19 A2991 RMK A01 T03150186  RH  049%=      5-min Rain = 0
KGGS 242015Z 09005G10KT 31/19 A2991 RMK A01 T03130187  RH  050%=      5-min Rain = 0
KGGS 242020Z 10005G13KT 31/19 A2991 RMK A01 T03130189  RH  050%=      5-min Rain = 0
KGGS 242025Z 09007KT 32/19 A2991 RMK A01 T03160190  RH  050%=      5-min Rain = 0
KGGS 242030Z 08008KT 32/19 A2991 RMK A01 T03190191  RH  049%=      5-min Rain = 0
KGGS 242035Z 10007KT 32/19 A299 RMK A01 T03240193  RH  049%=      5-min Rain = 0
KGGS 242040Z 08008G13KT 32/19 A299 RMK A01 T03230192  RH  049%=      5-min Rain = 0
KGGS 242045Z 09009G15KT 32/19 A299 RMK A01 T03230190  RH  048%=      5-min Rain = 0
KGGS 242050Z 09009G14KT 32/19 A2989 RMK A01 T03210187  RH  048%=      5-min Rain = 0
KGGS 242055Z 09009G15KT 33/19 A2989 RMK A01 T03270194  RH  048%=      5-min Rain = 0
KGGS 242100Z 09008G14KT 32/19 A2989 RMK A01 T03200192  RH  049%=      5-min Rain = 0
KGGS 242105Z 11008KT 32/19 A2989 RMK A01 T03240190  RH  048%=      5-min Rain = 0
KGGS 242110Z 10008G15KT 33/19 A2988 RMK A01 T03260188  RH  047%=      5-min Rain = 0
KGGS 242115Z 08009G16KT 32/19 A2988 RMK A01 T03240189  RH  047%=      5-min Rain = 0
KGGS 242120Z 08008KT 33/19 A2987 RMK A01 T03270189  RH  047%=      5-min Rain = 0
KGGS 242125Z 08007G14KT 32/19 A2987 RMK A01 T03240186  RH  046%=      5-min Rain = 0
KGGS 242130Z 09008G13KT 33/19 A2987 RMK A01 T03280187  RH  046%=      5-min Rain = 0
KGGS 242135Z 09007G12KT 33/19 A2986 RMK A01 T03270186  RH  046%=      5-min Rain = 0
KGGS 242140Z 09008KT 33/18 A2986 RMK A01 T03280181  RH  044%=      5-min Rain = 0
KGGS 242145Z 07010KT 32/19 A2986 RMK A01 T03150188  RH  050%=      5-min Rain = 0
KGGS 242150Z 05009KT 31/19 A2986 RMK A01 T03090188  RH  051%=      5-min Rain = 0
KGGS 242155Z 07008KT 31/19 A2986 RMK A01 T03090187  RH  051%=      5-min Rain = 0
KGGS 242200Z 08009KT 31/19 A2987 RMK A01 T03090185  RH  050%=      5-min Rain = 0
KGGS 242205Z 08006KT 31/19 A2986 RMK A01 T03080185  RH  051%=      5-min Rain = 0
KGGS 242210Z 05009G15KT 31/19 A2986 RMK A01 T03050187  RH  052%=      5-min Rain = 0
KGGS 242215Z 06009KT 30/19 A2986 RMK A01 T03020189  RH  054%=      5-min Rain = 0
KGGS 242220Z 07007KT 30/19 A2985 RMK A01 T03000189  RH  054%=      5-min Rain = 0
KGGS 242225Z 07008KT 30/19 A2985 RMK A01 T03010186  RH  053%=      5-min Rain = 0
KGGS 242230Z 07009KT 30/19 A2986 RMK A01 T02980190  RH  055%=      5-min Rain = 0
KGGS 242235Z 07008KT 30/19 A2986 RMK A01 T02960190  RH  056%=      5-min Rain = 0
KGGS 242240Z 07007KT 30/19 A2986 RMK A01 T02950190  RH  056%=      5-min Rain = 0
KGGS 242245Z 08008KT 30/19 A2986 RMK A01 T02950190  RH  056%=      5-min Rain = 0
KGGS 242250Z 07008G13KT 29/19 A2986 RMK A01 T02940191  RH  057%=      5-min Rain = 0
KGGS 242255Z 06007KT 29/19 A2986 RMK A01 T02920192  RH  058%=      5-min Rain = 0
KGGS 242300Z 06006KT 29/19 A2986 RMK A01 T02900192  RH  059%=      5-min Rain = 0
KGGS 242305Z 07008G14KT 29/19 A2986 RMK A01 T02900192  RH  059%=      5-min Rain = 0
KGGS 242310Z 07007KT 29/19 A2985 RMK A01 T02890192  RH  059%=      5-min Rain = 0
KGGS 242315Z 07007KT 29/19 A2985 RMK A01 T02880192  RH  059%=      5-min Rain = 0
KGGS 242320Z 07007KT 29/19 A2985 RMK A01 T02870193  RH  060%=      5-min Rain = 0
KGGS 242325Z 07007KT 29/19 A2986 RMK A01 T02850194  RH  061%=      5-min Rain = 0
KGGS 242330Z 07010KT 29/20 A2984 RMK A01 T02850195  RH  062%=      5-min Rain = 0
KGGS 242335Z 06010G16KT 28/20 A2984 RMK A01 T02830195  RH  062%=      5-min Rain = 0
KGGS 242340Z 05009KT 28/20 A2984 RMK A01 T02810197  RH  063%=      5-min Rain = 0
KGGS 242345Z 05009KT 28/20 A2984 RMK A01 T02770199  RH  066%=      5-min Rain = 0
KGGS 242350Z 06009G14KT 27/20 A2983 RMK A01 T02690202  RH  071%=      5-min Rain = 0
KGGS 242355Z 08007G12KT 27/20 A2986 RMK A01 T02690203  RH  071%=      5-min Rain = 0
KGGS 250000Z 10007G13KT 27/20 A2988 RMK A01 T02700202  RH  070%=      5-min Rain = 0
KGGS 250005Z 14006KT 26/21 A2988 RMK A01 T02620207  RH  076%=      5-min Rain = 0.03
KGGS 250010Z 14007KT 25/21 A2988 RMK A01 T02530212  RH  083%=      5-min Rain = 0.08
KGGS 250015Z 11005KT 25/21 A2988 RMK A01 T02460210  RH  086%=      5-min Rain = 0.11
KGGS 250020Z 06011G16KT 24/21 A2985 RMK A01 T02410206  RH  086%=      5-min Rain = 0.15
KGGS 250025Z 06016G24KT 24/20 A2983 RMK A01 T02390204  RH  085%=      5-min Rain = 0.04
KGGS 250030Z 07011G21KT 25/21 A2982 RMK A01 T02450205  RH  083%=      5-min Rain = 0.01
KGGS 250035Z 12007KT 25/21 A2985 RMK A01 T02470206  RH  083%=      5-min Rain = 0
KGGS 250040Z 14007KT 25/21 A2986 RMK A01 T02490212  RH  085%=      5-min Rain = 0
KGGS 250045Z 09009G14KT 25/22 A2985 RMK A01 T02530215  RH  084%=      5-min Rain = 0
KGGS 250050Z 09009G16KT 26/22 A2985 RMK A01 T02580215  RH  082%=      5-min Rain = 0
KGGS 250055Z 10008G13KT 26/22 A2985 RMK A01 T02620215  RH  080%=      5-min Rain = 0
KGGS 250100Z 10009G14KT 26/21 A2985 RMK A01 T02640212  RH  078%=      5-min Rain = 0
KGGS 250105Z 10010G15KT 27/21 A2986 RMK A01 T02660212  RH  077%=      5-min Rain = 0
KGGS 250110Z 10008G13KT 27/21 A2986 RMK A01 T02650212  RH  078%=      5-min Rain = 0
KGGS 250115Z 11008G13KT 27/21 A2986 RMK A01 T02650212  RH  077%=      5-min Rain = 0
KGGS 250120Z 11009KT 26/21 A2987 RMK A01 T02640212  RH  078%=      5-min Rain = 0
KGGS 250125Z 11007KT 26/21 A2987 RMK A01 T02630213  RH  079%=      5-min Rain = 0
KGGS 250130Z 11008KT 26/21 A2987 RMK A01 T02620212  RH  079%=      5-min Rain = 0
KGGS 250135Z 11007KT 26/21 A2987 RMK A01 T02620211  RH  078%=      5-min Rain = 0
KGGS 250140Z 10008G13KT 26/21 A2987 RMK A01 T02630210  RH  077%=      5-min Rain = 0
KGGS 250145Z 10009KT 26/21 A2987 RMK A01 T02630209  RH  077%=      5-min Rain = 0
KGGS 250150Z 10007KT 26/21 A2987 RMK A01 T02620208  RH  077%=      5-min Rain = 0
KGGS 250155Z 09007KT 26/21 A2987 RMK A01 T02600208  RH  078%=      5-min Rain = 0
KGGS 250200Z 09006KT 26/21 A2987 RMK A01 T02580209  RH  079%=      5-min Rain = 0
KGGS 250205Z 10006KT 26/21 A2987 RMK A01 T02570209  RH  080%=      5-min Rain = 0
KGGS 250210Z 10006KT 26/21 A2987 RMK A01 T02570208  RH  079%=      5-min Rain = 0
KGGS 250215Z 11006KT 26/21 A2988 RMK A01 T02580207  RH  078%=      5-min Rain = 0
KGGS 250220Z 11006KT 26/21 A2988 RMK A01 T02580207  RH  078%=      5-min Rain = 0
KGGS 250225Z 11005KT 26/21 A2988 RMK A01 T02570207  RH  078%=      5-min Rain = 0
KGGS 250230Z 11005KT 26/21 A2988 RMK A01 T02560206  RH  078%=      5-min Rain = 0
KGGS 250235Z 11006KT 26/21 A2989 RMK A01 T02560205  RH  078%=      5-min Rain = 0
KGGS 250240Z 12007KT 26/20 A2989 RMK A01 T02570201  RH  075%=      5-min Rain = 0
KGGS 250245Z 13006KT 26/20 A2989 RMK A01 T02570197  RH  073%=      5-min Rain = 0
KGGS 250250Z 14007G12KT 26/19 A2989 RMK A01 T02550192  RH  072%=      5-min Rain = 0
KGGS 250255Z 14010KT 26/19 A299 RMK A01 T02570186  RH  068%=      5-min Rain = 0
KGGS 250300Z 13010G15KT 26/19 A299 RMK A01 T02580185  RH  068%=      5-min Rain = 0
KGGS 250305Z 13010KT 26/19 A2991 RMK A01 T02580188  RH  069%=      5-min Rain = 0
KGGS 250310Z 12008G14KT 26/19 A2992 RMK A01 T02570193  RH  071%=      5-min Rain = 0
KGGS 250315Z 11008KT 26/20 A2993 RMK A01 T02560197  RH  074%=      5-min Rain = 0
KGGS 250320Z 10007KT 26/20 A2994 RMK A01 T02560199  RH  075%=      5-min Rain = 0
KGGS 250325Z 11007G14KT 26/20 A2995 RMK A01 T02550200  RH  076%=      5-min Rain = 0
KGGS 250330Z 12008G16KT 25/20 A2997 RMK A01 T02540202  RH  077%=      5-min Rain = 0
KGGS 250335Z 14011KT 25/19 A2999 RMK A01 T02490194  RH  075%=      5-min Rain = 0
KGGS 250340Z 14010G15KT 25/18 A2999 RMK A01 T02460183  RH  072%=      5-min Rain = 0
KGGS 250345Z 14010KT 24/18 A2998 RMK A01 T02440179  RH  071%=      5-min Rain = 0
KGGS 250350Z 13009G14KT 24/18 A2998 RMK A01 T02410177  RH  071%=      5-min Rain = 0
KGGS 250355Z 13008KT 24/18 A2997 RMK A01 T02390176  RH  072%=      5-min Rain = 0
KGGS 250400Z 12007KT 24/17 A2998 RMK A01 T02360174  RH  072%=      5-min Rain = 0
KGGS 250405Z 12007KT 23/17 A2998 RMK A01 T02340171  RH  072%=      5-min Rain = 0
KGGS 250410Z 13008KT 23/17 A2997 RMK A01 T02300169  RH  072%=      5-min Rain = 0
KGGS 250415Z 13010KT 23/17 A2997 RMK A01 T02280168  RH  073%=      5-min Rain = 0
KGGS 250420Z 13010KT 23/16 A2997 RMK A01 T02270163  RH  071%=      5-min Rain = 0
KGGS 250425Z 12008KT 23/16 A2997 RMK A01 T02260160  RH  069%=      5-min Rain = 0
KGGS 250430Z 12010G16KT 23/16 A2997 RMK A01 T02250157  RH  069%=      5-min Rain = 0
KGGS 250435Z 13011G18KT 23/15 A2997 RMK A01 T02250146  RH  064%=      5-min Rain = 0
KGGS 250440Z 14011G16KT 22/15 A2996 RMK A01 T02240145  RH  064%=      5-min Rain = 0
KGGS 250445Z 14010KT 22/15 A2996 RMK A01 T02210148  RH  066%=      5-min Rain = 0
KGGS 250450Z 14011KT 22/15 A2996 RMK A01 T02190148  RH  067%=      5-min Rain = 0
KGGS 250455Z 14008KT 22/15 A2996 RMK A01 T02170147  RH  067%=      5-min Rain = 0

Page generated in 0.0096 seconds.